createdAt,value
2023-01-20T00:01:46.721Z,43.98
2023-01-20T00:04:19.090Z,43.79
2023-01-20T00:06:47.836Z,44.23
2023-01-20T00:09:18.476Z,44.04
2023-01-20T00:11:47.537Z,44.08
2023-01-20T00:14:17.502Z,43.58
2023-01-20T00:16:45.962Z,44.19
2023-01-20T00:19:15.586Z,43.47
2023-01-20T00:21:44.325Z,43.91
2023-01-20T00:24:12.818Z,43.43
2023-01-20T00:26:41.446Z,43.66
2023-01-20T00:29:10.445Z,43.71
2023-01-20T00:31:40.386Z,44.10
2023-01-20T00:34:10.907Z,43.73
2023-01-20T00:36:39.362Z,43.40
2023-01-20T00:39:07.740Z,43.88
2023-01-20T00:41:36.343Z,43.79
2023-01-20T00:44:04.785Z,44.26
2023-01-20T00:46:33.183Z,44.07
2023-01-20T00:49:02.934Z,44.17
2023-01-20T00:51:31.389Z,43.86
2023-01-20T00:53:59.753Z,43.90
2023-01-20T00:56:28.185Z,44.10
2023-01-20T00:58:56.589Z,43.59
2023-01-20T01:01:25.424Z,43.96
2023-01-20T01:03:55.268Z,44.11
2023-01-20T01:06:25.053Z,43.93
2023-01-20T01:08:53.802Z,43.42
2023-01-20T01:11:22.230Z,44.19
2023-01-20T01:13:50.645Z,43.93
2023-01-20T01:16:19.082Z,43.93
2023-01-20T01:18:47.526Z,43.95
2023-01-20T01:21:18.148Z,43.65
2023-01-20T01:23:48.270Z,43.64
2023-01-20T01:26:16.691Z,44.11
2023-01-20T01:28:45.454Z,43.80
2023-01-20T01:31:13.957Z,43.64
2023-01-20T01:33:42.811Z,43.94
2023-01-20T01:36:15.562Z,44.08
2023-01-20T01:38:44.705Z,44.43
2023-01-20T01:41:16.492Z,44.37
2023-01-20T01:44:09.375Z,44.92
2023-01-20T01:46:38.488Z,44.98
2023-01-20T01:49:12.755Z,45.44
2023-01-20T01:51:44.872Z,45.13
2023-01-20T01:54:16.773Z,45.15
2023-01-20T01:56:48.628Z,45.73
2023-01-20T01:59:18.686Z,46.08
2023-01-20T02:01:51.484Z,45.39
2023-01-20T02:04:23.392Z,45.99
2023-01-20T02:06:56.628Z,45.76
2023-01-20T02:09:27.760Z,46.08
2023-01-20T02:12:01.261Z,45.99
2023-01-20T02:14:35.441Z,45.68
2023-01-20T02:17:12.592Z,45.80
2023-01-20T02:20:35.650Z,46.42
2023-01-20T02:23:12.264Z,45.76
2023-01-20T02:26:08.542Z,45.96
2023-01-20T02:29:08.467Z,45.97
2023-01-20T02:32:23.527Z,45.74
2023-01-20T02:34:58.841Z,45.61
2023-01-20T02:37:30.890Z,45.75
2023-01-20T02:40:17.012Z,45.49
2023-01-20T02:42:52.222Z,45.73
2023-01-20T02:45:26.941Z,45.76
2023-01-20T02:48:03.337Z,45.53
2023-01-20T02:50:41.378Z,45.66
2023-01-20T02:53:12.603Z,45.55
2023-01-20T02:55:44.715Z,45.67
2023-01-20T02:58:19.261Z,45.74
2023-01-20T03:00:54.211Z,45.15
2023-01-20T03:03:30.625Z,45.25
2023-01-20T03:06:03.346Z,45.21
2023-01-20T03:08:34.370Z,44.92
2023-01-20T03:11:07.957Z,45.09
2023-01-20T03:13:46.397Z,45.27
2023-01-20T03:16:19.603Z,44.86
2023-01-20T03:18:49.804Z,44.72
2023-01-20T03:21:18.554Z,45.07
2023-01-20T03:23:50.848Z,44.86
2023-01-20T03:26:22.680Z,44.99
2023-01-20T03:28:51.789Z,45.05
2023-01-20T03:31:25.163Z,45.13
2023-01-20T03:33:59.066Z,44.60
2023-01-20T03:36:30.975Z,44.71
2023-01-20T03:39:00.564Z,44.52
2023-01-20T03:41:39.673Z,44.69
2023-01-20T03:44:15.331Z,44.56
2023-01-20T03:46:49.157Z,44.66
2023-01-20T03:49:26.511Z,44.63
2023-01-20T03:52:05.885Z,44.47
2023-01-20T03:54:43.509Z,44.41
2023-01-20T03:57:18.358Z,44.91
2023-01-20T03:59:50.003Z,44.08
2023-01-20T04:02:18.564Z,44.51
2023-01-20T04:04:50.969Z,44.42
2023-01-20T04:07:26.754Z,44.61
2023-01-20T04:10:04.028Z,44.82
2023-01-20T04:12:32.582Z,44.39
2023-01-20T04:15:02.366Z,44.58
2023-01-20T04:17:31.667Z,44.61
2023-01-20T04:20:06.238Z,44.69
2023-01-20T04:22:40.273Z,44.16
2023-01-20T04:25:16.172Z,44.22
2023-01-20T04:27:44.802Z,44.49
2023-01-20T04:30:15.319Z,44.50
2023-01-20T04:32:43.735Z,44.68
2023-01-20T04:35:16.476Z,44.29
2023-01-20T04:37:45.114Z,44.42
2023-01-20T04:40:14.713Z,44.32
2023-01-20T04:42:43.093Z,44.37
2023-01-20T04:45:16.118Z,44.74
2023-01-20T04:47:45.054Z,44.25
2023-01-20T04:50:16.476Z,44.20
2023-01-20T04:52:45.411Z,44.65
2023-01-20T04:55:15.020Z,44.43
2023-01-20T04:57:43.505Z,44.58
2023-01-20T05:00:18.568Z,44.50
2023-01-20T05:02:47.531Z,44.37
2023-01-20T05:05:17.979Z,44.08
2023-01-20T05:07:46.448Z,44.49
2023-01-20T05:10:14.816Z,44.73
2023-01-20T05:12:43.365Z,44.01
2023-01-20T05:15:12.763Z,44.10
2023-01-20T05:17:41.303Z,44.85
2023-01-20T05:20:12.082Z,44.40
2023-01-20T05:22:42.036Z,44.52
2023-01-20T05:25:11.190Z,44.99
2023-01-20T05:27:39.673Z,44.73
2023-01-20T05:30:10.366Z,45.02
2023-01-20T05:32:38.773Z,44.43
2023-01-20T05:35:09.102Z,44.83
2023-01-20T05:37:37.902Z,45.01
2023-01-20T05:40:09.768Z,45.16
2023-01-20T05:42:38.188Z,45.13
2023-01-20T05:45:09.345Z,45.08
2023-01-20T05:47:37.781Z,44.92
2023-01-20T05:50:07.438Z,45.08
2023-01-20T05:52:35.900Z,45.14
2023-01-20T05:55:05.216Z,44.93
2023-01-20T05:57:35.047Z,45.30
2023-01-20T06:00:04.162Z,45.26
2023-01-20T06:02:32.844Z,45.12
2023-01-20T06:05:01.703Z,45.00
2023-01-20T06:07:30.961Z,44.95
2023-01-20T06:09:59.882Z,45.48
2023-01-20T06:12:28.299Z,44.94
2023-01-20T06:14:58.512Z,44.73
2023-01-20T06:17:26.913Z,45.00
2023-01-20T06:19:55.399Z,44.82
2023-01-20T06:22:23.947Z,45.00
2023-01-20T06:24:52.362Z,44.69
2023-01-20T06:27:20.996Z,44.79
2023-01-20T06:29:50.920Z,44.94
2023-01-20T06:32:20.945Z,44.68
2023-01-20T06:34:49.395Z,44.61
2023-01-20T06:37:17.951Z,44.34
2023-01-20T06:39:46.401Z,44.77
2023-01-20T06:42:14.939Z,44.23
2023-01-20T06:44:43.339Z,44.67
2023-01-20T06:47:11.940Z,44.40
2023-01-20T06:49:41.766Z,44.95
2023-01-20T06:52:10.215Z,44.67
2023-01-20T06:54:38.685Z,44.22
2023-01-20T06:57:07.276Z,44.04
2023-01-20T06:59:35.736Z,44.47
2023-01-20T07:02:04.260Z,44.32
2023-01-20T07:04:32.837Z,44.74
2023-01-20T07:07:02.613Z,44.14
2023-01-20T07:09:31.128Z,44.01
2023-01-20T07:11:59.505Z,43.91
2023-01-20T07:14:28.040Z,44.29
2023-01-20T07:16:56.447Z,43.91
2023-01-20T07:19:24.902Z,43.61
2023-01-20T07:21:53.377Z,43.87
2023-01-20T07:24:23.199Z,43.57
2023-01-20T07:26:54.590Z,43.65
2023-01-20T07:29:23.259Z,43.92
2023-01-20T07:31:51.809Z,43.79
2023-01-20T07:34:20.389Z,43.26
2023-01-20T07:36:48.812Z,43.45
2023-01-20T07:39:20.253Z,43.47
2023-01-20T07:41:50.249Z,43.64
2023-01-20T07:44:18.779Z,43.31
2023-01-20T07:46:47.241Z,43.63
2023-01-20T07:49:15.879Z,43.27
2023-01-20T07:51:44.348Z,43.62
2023-01-20T07:54:13.356Z,43.16
2023-01-20T07:56:42.481Z,43.56
2023-01-20T07:59:13.046Z,43.39
2023-01-20T08:01:41.618Z,43.20
2023-01-20T08:04:10.208Z,43.16
2023-01-20T08:06:38.658Z,42.99
2023-01-20T08:09:09.754Z,43.19
2023-01-20T08:11:38.242Z,43.36
2023-01-20T08:14:06.852Z,43.49
2023-01-20T08:16:36.740Z,42.79
2023-01-20T08:19:05.337Z,43.06
2023-01-20T08:21:34.842Z,42.93
2023-01-20T08:24:06.697Z,42.63
2023-01-20T08:26:35.460Z,42.87
2023-01-20T08:29:05.775Z,42.52
2023-01-20T08:31:36.049Z,42.66
2023-01-20T08:34:05.702Z,42.60
2023-01-20T08:36:37.371Z,42.40
2023-01-20T08:39:09.043Z,41.88
2023-01-20T08:41:39.750Z,41.75
2023-01-20T08:44:09.109Z,42.46
2023-01-20T08:46:41.809Z,42.48
2023-01-20T08:49:13.623Z,41.58
2023-01-20T08:51:43.115Z,42.05
2023-01-20T08:54:11.618Z,41.60
2023-01-20T08:56:40.219Z,42.33
2023-01-20T08:59:08.902Z,42.01
2023-01-20T09:01:38.908Z,41.95
2023-01-20T09:04:08.037Z,41.65
2023-01-20T09:06:43.005Z,41.42
2023-01-20T09:09:12.302Z,41.39
2023-01-20T09:11:43.242Z,41.72
2023-01-20T09:14:11.852Z,41.72
2023-01-20T09:16:41.764Z,41.10
2023-01-20T09:19:10.267Z,41.02
2023-01-20T09:21:38.805Z,41.26
2023-01-20T09:24:08.396Z,41.38
2023-01-20T09:26:39.531Z,40.81
2023-01-20T09:29:11.886Z,39.93
2023-01-20T09:31:45.343Z,39.88
2023-01-20T09:34:19.382Z,39.78
2023-01-20T09:36:52.501Z,40.22
2023-01-20T09:39:39.705Z,40.35
2023-01-20T09:42:47.202Z,39.76
2023-01-20T09:45:25.844Z,39.57
2023-01-20T09:48:14.129Z,39.37
2023-01-20T09:51:08.070Z,38.93
2023-01-20T09:53:49.859Z,38.87
2023-01-20T09:56:20.730Z,38.68
2023-01-20T09:58:58.690Z,37.86
2023-01-20T10:01:33.815Z,38.09
2023-01-20T10:04:14.191Z,38.24
2023-01-20T10:06:47.431Z,38.42
2023-01-20T10:09:27.146Z,38.99
2023-01-20T10:12:07.244Z,38.50
2023-01-20T10:14:41.777Z,38.66
2023-01-20T10:17:17.613Z,38.23
2023-01-20T10:19:52.124Z,38.37
2023-01-20T10:22:28.105Z,38.48
2023-01-20T10:25:05.576Z,37.96
2023-01-20T10:27:37.115Z,37.79
2023-01-20T10:30:11.146Z,38.06
2023-01-20T10:32:43.259Z,38.11
2023-01-20T10:35:19.162Z,38.25
2023-01-20T10:37:47.660Z,38.10
2023-01-20T10:40:29.604Z,37.79
2023-01-20T10:43:02.218Z,37.64
2023-01-20T10:45:39.484Z,37.50
2023-01-20T10:48:25.289Z,37.55
2023-01-20T10:51:05.827Z,37.66
2023-01-20T10:53:48.427Z,37.75
2023-01-20T10:56:39.567Z,37.98
2023-01-20T10:59:16.513Z,37.99
2023-01-20T11:01:56.212Z,37.67
2023-01-20T11:04:28.960Z,37.21
2023-01-20T11:07:03.681Z,37.29
2023-01-20T11:09:37.748Z,37.11
2023-01-20T11:12:14.321Z,36.71
2023-01-20T11:14:43.777Z,36.40
2023-01-20T11:17:18.951Z,36.18
2023-01-20T11:19:51.929Z,36.22
2023-01-20T11:22:31.068Z,35.91
2023-01-20T11:25:01.276Z,36.06
2023-01-20T11:27:36.127Z,36.27
2023-01-20T11:30:21.776Z,36.51
2023-01-20T11:33:10.058Z,36.88
2023-01-20T11:35:38.819Z,36.98
2023-01-20T11:38:28.163Z,36.82
2023-01-20T11:40:58.391Z,36.53
2023-01-20T11:43:35.836Z,37.03
2023-01-20T11:46:22.604Z,36.75
2023-01-20T11:48:52.304Z,36.67
2023-01-20T11:51:25.395Z,36.63
2023-01-20T11:54:09.143Z,36.79
2023-01-20T11:56:42.742Z,36.88
2023-01-20T11:59:27.060Z,36.84
2023-01-20T12:02:01.957Z,36.58
2023-01-20T12:05:04.327Z,36.45
2023-01-20T12:07:38.790Z,36.29
2023-01-20T12:10:18.776Z,36.15
2023-01-20T12:12:53.336Z,36.24
2023-01-20T12:15:26.697Z,35.89
2023-01-20T12:18:01.007Z,35.59
2023-01-20T12:20:53.565Z,36.31
2023-01-20T12:23:45.899Z,36.05
2023-01-20T12:26:18.513Z,36.13
2023-01-20T12:28:55.737Z,36.16
2023-01-20T12:31:25.286Z,36.71
2023-01-20T12:34:03.927Z,36.41
2023-01-20T12:36:56.915Z,36.25
2023-01-20T12:40:01.440Z,35.95
2023-01-20T12:43:15.813Z,36.32
2023-01-20T12:46:35.079Z,36.24
2023-01-20T12:49:40.969Z,36.27
2023-01-20T12:52:29.508Z,36.16
2023-01-20T12:55:23.969Z,36.20
2023-01-20T12:58:12.389Z,36.58
2023-01-20T13:01:29.537Z,36.40
2023-01-20T13:04:31.818Z,36.48
2023-01-20T13:07:24.534Z,36.93
2023-01-20T13:10:21.051Z,36.70
2023-01-20T13:12:59.061Z,36.87
2023-01-20T13:15:34.275Z,37.08
2023-01-20T13:18:27.840Z,37.10
2023-01-20T13:20:57.159Z,37.33
2023-01-20T13:23:28.989Z,37.62
2023-01-20T13:25:59.052Z,37.40
2023-01-20T13:28:30.132Z,37.32
2023-01-20T13:31:01.709Z,37.10
2023-01-20T13:33:39.214Z,37.20
2023-01-20T13:36:18.659Z,37.26
2023-01-20T13:38:48.482Z,37.58
2023-01-20T13:41:51.058Z,37.49
2023-01-20T13:44:35.539Z,37.42
2023-01-20T13:47:08.631Z,37.43
2023-01-20T13:49:52.514Z,37.33
2023-01-20T13:53:25.184Z,37.72
2023-01-20T13:56:02.462Z,37.73
2023-01-20T13:58:32.886Z,37.58
2023-01-20T14:01:03.939Z,37.70
2023-01-20T14:03:37.009Z,37.37
2023-01-20T14:06:07.980Z,37.51
2023-01-20T14:08:42.956Z,37.56
2023-01-20T14:11:14.646Z,37.61
2023-01-20T14:13:44.245Z,37.33
2023-01-20T14:16:22.366Z,37.73
2023-01-20T14:18:54.835Z,37.72
2023-01-20T14:21:26.667Z,37.77
2023-01-20T14:23:55.284Z,37.57
2023-01-20T14:26:26.640Z,37.40
2023-01-20T14:28:57.262Z,37.67
2023-01-20T14:31:36.594Z,37.72
2023-01-20T14:34:25.348Z,37.77
2023-01-20T14:36:54.659Z,37.19
2023-01-20T14:39:26.151Z,37.52
2023-01-20T14:41:56.188Z,37.61
2023-01-20T14:44:26.785Z,37.76
2023-01-20T14:46:59.394Z,37.79
2023-01-20T14:49:34.468Z,38.02
2023-01-20T14:52:03.526Z,37.96
2023-01-20T14:54:38.476Z,37.76
2023-01-20T14:57:23.720Z,37.92
2023-01-20T15:00:21.864Z,38.12
2023-01-20T15:03:09.598Z,38.14
2023-01-20T15:05:44.340Z,38.11
2023-01-20T15:08:26.054Z,38.19
2023-01-20T15:11:31.471Z,38.20
2023-01-20T15:14:13.641Z,38.54
2023-01-20T15:16:51.161Z,38.65
2023-01-20T15:19:37.127Z,38.61
2023-01-20T15:22:28.434Z,38.69
2023-01-20T15:24:56.996Z,38.49
2023-01-20T15:27:31.458Z,38.96
2023-01-20T15:30:17.158Z,38.60
2023-01-20T15:32:46.066Z,38.83
2023-01-20T15:35:16.542Z,38.78
2023-01-20T15:37:46.764Z,38.84
2023-01-20T15:40:18.592Z,38.77
2023-01-20T15:42:47.675Z,39.16
2023-01-20T15:45:17.880Z,38.60
2023-01-20T15:47:47.819Z,38.72
2023-01-20T15:50:19.680Z,38.95
2023-01-20T15:52:49.960Z,39.47
2023-01-20T15:55:20.678Z,39.05
2023-01-20T15:57:53.063Z,39.47
2023-01-20T16:00:24.639Z,39.43
2023-01-20T16:02:53.184Z,39.41
2023-01-20T16:05:22.253Z,39.28
2023-01-20T16:07:52.137Z,39.60
2023-01-20T16:10:21.477Z,39.58
2023-01-20T16:12:49.957Z,39.35
2023-01-20T16:15:19.560Z,39.29
2023-01-20T16:17:48.022Z,39.60
2023-01-20T16:20:27.502Z,39.69
2023-01-20T16:22:57.964Z,39.36
2023-01-20T16:25:29.915Z,39.76
2023-01-20T16:27:59.164Z,39.45
2023-01-20T16:30:27.924Z,40.08
2023-01-20T16:32:56.744Z,39.76
2023-01-20T16:35:25.599Z,39.85
2023-01-20T16:37:54.065Z,39.73
2023-01-20T16:40:25.005Z,39.56
2023-01-20T16:42:56.952Z,39.84
2023-01-20T16:45:29.428Z,39.85
2023-01-20T16:47:58.589Z,39.76
2023-01-20T16:50:28.479Z,40.03
2023-01-20T16:52:57.488Z,39.90
2023-01-20T16:55:27.400Z,39.69
2023-01-20T16:57:55.794Z,40.04
2023-01-20T17:00:24.724Z,39.98
2023-01-20T17:02:53.939Z,40.05
2023-01-20T17:05:25.964Z,39.56
2023-01-20T17:07:57.404Z,39.35
2023-01-20T17:10:30.444Z,39.72
2023-01-20T17:12:59.526Z,39.57
2023-01-20T17:15:29.448Z,40.17
2023-01-20T17:18:00.457Z,40.06
2023-01-20T17:20:32.444Z,40.04
2023-01-20T17:23:01.695Z,40.04
2023-01-20T17:25:32.117Z,39.78
2023-01-20T17:28:01.920Z,40.16
2023-01-20T17:30:30.855Z,39.62
2023-01-20T17:32:59.716Z,39.59
2023-01-20T17:35:28.916Z,39.83
2023-01-20T17:37:59.312Z,39.73
2023-01-20T17:40:28.163Z,39.83
2023-01-20T17:42:58.522Z,39.75
2023-01-20T17:45:29.547Z,39.34
2023-01-20T17:47:58.528Z,39.64
2023-01-20T17:50:29.276Z,39.62
2023-01-20T17:52:58.045Z,39.64
2023-01-20T17:55:26.853Z,39.79
2023-01-20T17:57:58.397Z,39.55
2023-01-20T18:00:28.195Z,39.17
2023-01-20T18:02:58.229Z,39.27
2023-01-20T18:05:30.281Z,39.25
2023-01-20T18:07:59.041Z,39.62
2023-01-20T18:10:28.757Z,39.56
2023-01-20T18:13:00.914Z,39.49
2023-01-20T18:15:32.708Z,39.31
2023-01-20T18:18:02.800Z,39.37
2023-01-20T18:20:32.126Z,39.22
2023-01-20T18:23:01.468Z,39.26
2023-01-20T18:25:31.981Z,39.30
2023-01-20T18:28:02.333Z,39.36
2023-01-20T18:30:31.819Z,39.53
2023-01-20T18:33:01.386Z,39.15
2023-01-20T18:35:32.634Z,39.25
2023-01-20T18:38:02.538Z,39.31
2023-01-20T18:40:32.109Z,39.57
2023-01-20T18:43:02.063Z,39.51
2023-01-20T18:45:31.495Z,39.58
2023-01-20T18:48:00.349Z,39.36
2023-01-20T18:50:32.796Z,39.13
2023-01-20T18:53:02.623Z,39.23
2023-01-20T18:55:32.410Z,39.40
2023-01-20T18:58:04.271Z,39.21
2023-01-20T19:00:33.815Z,39.71
2023-01-20T19:03:02.914Z,39.30
2023-01-20T19:05:34.260Z,39.90
2023-01-20T19:08:04.119Z,39.75
2023-01-20T19:10:33.159Z,39.53
2023-01-20T19:13:04.954Z,39.39
2023-01-20T19:15:36.903Z,39.69
2023-01-20T19:18:07.355Z,39.63
2023-01-20T19:20:36.641Z,39.65
2023-01-20T19:23:08.099Z,39.14
2023-01-20T19:25:39.807Z,39.30
2023-01-20T19:28:15.468Z,39.36
2023-01-20T19:30:45.136Z,39.79
2023-01-20T19:33:16.640Z,40.70
2023-01-20T19:35:46.426Z,40.65
2023-01-20T19:38:16.171Z,40.70
2023-01-20T19:40:46.366Z,41.73
2023-01-20T19:43:17.553Z,42.63
2023-01-20T19:45:48.514Z,42.53
2023-01-20T19:48:20.201Z,43.53
2023-01-20T19:50:52.680Z,44.15
2023-01-20T19:53:23.391Z,44.11
2023-01-20T19:55:54.112Z,45.15
2023-01-20T19:58:32.359Z,45.11
2023-01-20T20:01:09.345Z,45.72
2023-01-20T20:03:42.737Z,46.00
2023-01-20T20:06:27.314Z,47.23
2023-01-20T20:09:02.307Z,46.99
2023-01-20T20:11:33.716Z,47.24
2023-01-20T20:14:06.925Z,47.78
2023-01-20T20:16:39.199Z,48.20
2023-01-20T20:19:10.247Z,48.28
2023-01-20T20:21:40.537Z,47.85
2023-01-20T20:24:15.627Z,48.08
2023-01-20T20:26:48.272Z,48.50
2023-01-20T20:29:21.280Z,48.02
2023-01-20T20:31:51.342Z,48.63
2023-01-20T20:34:23.740Z,47.95
2023-01-20T20:36:53.953Z,47.81
2023-01-20T20:39:23.537Z,47.23
2023-01-20T20:41:53.312Z,46.96
2023-01-20T20:44:24.861Z,46.83
2023-01-20T20:46:56.664Z,47.13
2023-01-20T20:49:26.760Z,46.57
2023-01-20T20:51:56.938Z,46.70
2023-01-20T20:54:26.993Z,46.56
2023-01-20T20:56:57.422Z,46.66
2023-01-20T20:59:32.017Z,45.84
2023-01-20T21:02:01.533Z,45.56
2023-01-20T21:04:31.926Z,46.22
2023-01-20T21:07:02.065Z,45.50
2023-01-20T21:09:31.677Z,45.16
2023-01-20T21:12:01.557Z,45.42
2023-01-20T21:14:32.778Z,45.58
2023-01-20T21:17:04.355Z,45.81
2023-01-20T21:19:35.834Z,45.83
2023-01-20T21:22:05.212Z,45.73
2023-01-20T21:24:35.311Z,45.96
2023-01-20T21:27:04.473Z,46.81
2023-01-20T21:29:34.618Z,46.78
2023-01-20T21:32:03.189Z,47.38
2023-01-20T21:34:32.244Z,47.37
2023-01-20T21:37:01.075Z,47.06
2023-01-20T21:39:30.206Z,47.06
2023-01-20T21:41:59.519Z,47.09
2023-01-20T21:44:30.122Z,47.36
2023-01-20T21:47:03.221Z,47.88
2023-01-20T21:49:49.986Z,47.80
2023-01-20T21:52:39.300Z,48.15
2023-01-20T21:55:10.127Z,47.72
2023-01-20T21:57:38.717Z,47.86
2023-01-20T22:00:09.931Z,48.21
2023-01-20T22:02:40.554Z,48.36
2023-01-20T22:05:09.929Z,48.88
2023-01-20T22:07:38.629Z,49.06
2023-01-20T22:10:08.824Z,49.11
2023-01-20T22:12:37.446Z,48.77
2023-01-20T22:15:07.604Z,48.98
2023-01-20T22:17:36.149Z,49.08
2023-01-20T22:20:07.224Z,50.13
2023-01-20T22:22:35.683Z,50.17
2023-01-20T22:25:04.286Z,50.08
2023-01-20T22:27:32.700Z,50.35
2023-01-20T22:30:01.060Z,50.08
2023-01-20T22:32:29.485Z,50.66
2023-01-20T22:34:58.001Z,50.83
2023-01-20T22:37:28.004Z,49.95
2023-01-20T22:39:56.430Z,50.39
2023-01-20T22:42:24.937Z,50.96
2023-01-20T22:44:53.344Z,50.80
2023-01-20T22:47:21.704Z,51.83
2023-01-20T22:49:50.168Z,51.32
2023-01-20T22:52:18.557Z,51.84
2023-01-20T22:54:48.377Z,51.97
2023-01-20T22:57:16.900Z,51.89
2023-01-20T22:59:45.322Z,52.35
2023-01-20T23:02:13.768Z,52.11
2023-01-20T23:04:42.264Z,52.32
2023-01-20T23:07:10.614Z,52.35
2023-01-20T23:09:39.003Z,52.01
2023-01-20T23:12:09.029Z,52.64
2023-01-20T23:14:55.364Z,52.92
2023-01-20T23:17:23.757Z,52.66
2023-01-20T23:19:52.356Z,53.21
2023-01-20T23:22:21.053Z,53.37
2023-01-20T23:24:49.573Z,53.33
2023-01-20T23:27:19.384Z,53.40
2023-01-20T23:29:49.176Z,53.39
2023-01-20T23:32:17.579Z,53.36
2023-01-20T23:34:45.988Z,53.44
2023-01-20T23:37:14.420Z,53.55
2023-01-20T23:39:42.833Z,53.93
2023-01-20T23:42:11.360Z,54.11
2023-01-20T23:44:41.117Z,53.71
2023-01-20T23:47:10.373Z,53.25
2023-01-20T23:49:38.915Z,53.38
2023-01-20T23:52:07.405Z,53.76
2023-01-20T23:54:35.769Z,54.14
2023-01-20T23:57:04.373Z,53.64
2023-01-20T23:59:32.785Z,54.14
